METAR Data
IDs: Format: Raw Decoded Include TAF

Data at: 0133 UTC 29 May 2022

KGOO 290115Z AUTO 00000KT 10SM BKN029 OVC038 16/09 A2991 RMK A01
KGOO 290055Z AUTO 00000KT 10SM SCT032 BKN041 OVC060 17/08 A2991 RMK A01
KGOO 290035Z AUTO 00000G11KT 10SM SCT031 BKN037 OVC042 17/08 A2991 RMK A01
KGOO 290015Z AUTO VRB03G10KT 10SM BKN037 OVC070 17/08 A2991 RMK A01
KGOO 282355Z AUTO 00000G11KT 10SM OVC038 17/07 A2992 RMK A01
KGOO 282335Z AUTO VRB04KT 10SM OVC037 16/07 A2992 RMK A01
KGOO 282315Z AUTO 00000KT 10SM BKN039 OVC045 17/07 A2993 RMK A01
KGOO 282255Z AUTO 00000G10KT 10SM BKN039 OVC045 17/07 A2993 RMK A01
KGOO 282235Z AUTO VRB04KT 10SM BKN039 OVC055 17/07 A2994 RMK A01
KGOO 282210Z AUTO 22003G13KT 10SM FEW036 SCT043 OVC055 17/07 A2994 RMK A01
KGOO 282155Z AUTO VRB05G12KT 10SM FEW033 OVC060 18/07 A2994 RMK A01
KGOO 282135Z AUTO VRB04G14KT 10SM FEW032 OVC060 18/07 A2995 RMK A01
KGOO 282115Z AUTO VRB06G14KT 10SM FEW032 OVC060 18/07 A2995 RMK A01
KGOO 282055Z AUTO VRB04G13KT 10SM FEW031 OVC060 18/07 A2995 RMK A01
KGOO 282030Z AUTO 00000G14KT 10SM OVC060 18/07 A2995 RMK A01
KGOO 282015Z AUTO VRB06G13KT 170V240 10SM OVC060 18/07 A2995 RMK A01
KGOO 281955Z AUTO 00000G10KT 10SM OVC060 17/06 A2995 RMK A01
KGOO 281935Z AUTO 00000KT 10SM OVC060 17/05 A2995 RMK A01
KGOO 281915Z AUTO 18007G12KT 150V210 10SM OVC065 17/03 A2995 RMK A01
KGOO 281855Z AUTO VRB05G10KT 10SM OVC070 18/03 A2996 RMK A01
KGOO 281835Z AUTO VRB06KT 10SM OVC070 18/03 A2995 RMK A01
KGOO 281815Z AUTO VRB05G11KT 10SM BKN070 18/03 A2995 RMK A01
KGOO 281755Z AUTO 16008G13KT 130V220 10SM CLR 18/02 A2995 RMK A01
KGOO 281735Z AUTO 15007KT 10SM CLR 17/03 A2995 RMK A01
KGOO 281715Z AUTO VRB05G11KT 10SM CLR 16/04 A2995 RMK A01
KGOO 281655Z AUTO VRB05G10KT 10SM CLR 16/05 A2995 RMK A01
KGOO 281635Z AUTO 00000KT 10SM SCT070 17/06 A2994 RMK A01
KGOO 281615Z AUTO VRB03KT 10SM SCT070 15/06 A2994 RMK A01
KGOO 281555Z AUTO VRB06KT 10SM CLR 15/06 A2993 RMK A01
KGOO 281535Z AUTO 16008KT 130V220 10SM CLR 15/06 A2993 RMK A01
KGOO 281515Z AUTO VRB04G11KT 10SM CLR 14/07 A2993 RMK A01
KGOO 281455Z AUTO VRB04KT 10SM CLR 14/08 A2993 RMK A01
KGOO 281435Z AUTO VRB05KT 10SM CLR 13/08 A2993 RMK A01
KGOO 281415Z AUTO 00000G10KT 10SM CLR 12/09 A2993 RMK A01
KGOO 281355Z AUTO 00000KT 10SM FEW075 13/09 A2993 RMK A01
KGOO 281330Z AUTO 00000KT 10SM SCT080 11/09 A2992 RMK A01
KGOO 281315Z AUTO 00000KT 10SM BKN080 12/08 A2992 RMK A01
KGOO 281255Z AUTO 00000KT 10SM OVC080 12/08 A2992 RMK A01
KGOO 281235Z AUTO VRB04KT 10SM FEW060 SCT070 OVC080 12/08 A2992 RMK A01
KGOO 281215Z AUTO 00000KT 10SM BKN055 BKN070 OVC080 12/09 A2993 RMK A01
KGOO 281155Z AUTO 00000KT 10SM OVC050 12/09 A2993 RMK A01
KGOO 281135Z AUTO 00000KT 10SM OVC050 12/09 A2993 RMK A01
KGOO 281115Z AUTO 00000KT 10SM OVC055 12/09 A2994 RMK A01
KGOO 281055Z AUTO 00000KT 10SM OVC055 12/09 A2993 RMK A01
KGOO 281035Z AUTO 00000KT 10SM OVC055 12/09 A2995 RMK A01
KGOO 281010Z AUTO 00000KT 10SM BKN055 OVC065 12/09 A2994 RMK A01
KGOO 280955Z AUTO 00000KT 10SM OVC055 12/09 A2994 RMK A01
KGOO 280935Z AUTO 00000KT 10SM OVC050 12/09 A2996 RMK A01
KGOO 280915Z AUTO 00000KT 10SM BKN050 OVC060 12/09 A2995 RMK A01
KGOO 280855Z AUTO 00000KT 10SM BKN060 OVC070 12/10 A2995 RMK A01
KGOO 280835Z AUTO 00000KT 10SM FEW045 BKN065 OVC075 12/11 A2996 RMK A01
KGOO 280815Z AUTO 00000KT 10SM FEW047 OVC070 12/11 A2996 RMK A01
KGOO 280755Z AUTO 00000KT 10SM FEW060 OVC070 13/11 A2997 RMK A01
KGOO 280735Z AUTO 00000KT 10SM FEW030 SCT060 OVC075 13/10 A2996 RMK A01
KGOO 280715Z AUTO 13005G15KT 10SM FEW029 SCT060 OVC075 14/09 A2996 RMK A01
KGOO 280655Z AUTO VRB07KT 10SM SCT065 OVC075 14/09 A2997 RMK A01
KGOO 280635Z AUTO 00000KT 10SM OVC075 14/09 A2998 RMK A01
KGOO 280615Z AUTO 00000KT 10SM FEW060 BKN075 OVC090 15/09 A2999 RMK A01
KGOO 280555Z AUTO 00000KT 10SM SCT075 BKN095 OVC110 15/09 A2999 RMK A01
KGOO 280535Z AUTO 00000KT 10SM OVC110 16/09 A2999 RMK A01
KGOO 280515Z AUTO 00000G10KT 10SM BKN110 16/09 A2999 RMK A01
KGOO 280455Z AUTO 00000KT 10SM OVC100 16/09 A2998 RMK A01
KGOO 280435Z AUTO 00000KT 10SM OVC110 16/09 A2998 RMK A01
KGOO 280415Z AUTO 00000KT 10SM OVC120 17/09 A2998 RMK A01
KGOO 280355Z AUTO 00000KT 10SM OVC120 17/09 A2999 RMK A01
KGOO 280335Z AUTO 00000KT 10SM SCT120 17/09 A2999 RMK A01
KGOO 280310Z AUTO 00000KT 10SM CLR 17/09 A2999 RMK A01
KGOO 280250Z AUTO 00000KT 10SM CLR 18/09 A2999 RMK A01
KGOO 280235Z AUTO 00000KT 10SM CLR 18/08 A2999 RMK A01
KGOO 280215Z AUTO 00000G10KT 10SM CLR 19/08 A2999 RMK A01
KGOO 280155Z AUTO 00000KT 10SM CLR 20/09 A2999 RMK A01
KGOO 280135Z AUTO 00000KT 10SM CLR 20/08 A2999 RMK A01
KGOO 280115Z AUTO 00000KT 10SM CLR 20/08 A2999 RMK A01
KGOO 280055Z AUTO 00000KT 10SM CLR 21/08 A3000 RMK A01
KGOO 280035Z AUTO 00000KT 10SM CLR 22/09 A3000 RMK A01
KGOO 280015Z AUTO 00000KT 10SM CLR 22/08 A3000 RMK A01
KGOO 272355Z AUTO 00000KT 10SM CLR 22/08 A3001 RMK A01
KGOO 272330Z AUTO 23005KT 10SM CLR 22/07 A3001 RMK A01
KGOO 272315Z AUTO 00000G10KT 10SM CLR 23/09 A3002 RMK A01
KGOO 272255Z AUTO VRB04KT 10SM CLR 22/09 A3002 RMK A01
KGOO 272235Z AUTO VRB06G12KT 10SM CLR 23/08 A3002 RMK A01
KGOO 272215Z AUTO 23008KT 10SM CLR 24/09 A3002 RMK A01
KGOO 272155Z AUTO 21007KT 10SM CLR 24/08 A3002 RMK A01
KGOO 272135Z AUTO VRB06KT 10SM CLR 25/08 A3003 RMK A01
KGOO 272115Z AUTO 00000G10KT 10SM CLR 25/08 A3003 RMK A01
KGOO 272055Z AUTO 00000KT 10SM CLR 24/08 A3003 RMK A01
KGOO 272035Z AUTO 29003KT 10SM CLR 23/07 A3003 RMK A01
KGOO 272015Z AUTO 00000KT 10SM CLR 24/09 A3004 RMK A01
KGOO 271955Z AUTO 00000KT 10SM FEW100 23/08 A3004 RMK A01
KGOO 271935Z AUTO 00000G10KT 10SM FEW100 23/10 A3005 RMK A01
KGOO 271915Z AUTO 26008G14KT 230V290 10SM CLR 23/10 A3005 RMK A01
KGOO 271855Z AUTO 00000KT 10SM CLR 24/10 A3004 RMK A01
KGOO 271835Z AUTO 00000KT 10SM CLR 23/10 A3003 RMK A01
KGOO 271815Z AUTO VRB05G10KT 10SM CLR 23/09 A3003 RMK A01
KGOO 271750Z AUTO 00000KT 10SM CLR 22/08 A3003 RMK A01
KGOO 271735Z AUTO 00000KT 10SM CLR 23/08 A3003 RMK A01
KGOO 271715Z AUTO 00000KT 10SM CLR 21/07 A3003 RMK A01
KGOO 271655Z AUTO 00000KT 10SM CLR 20/05 A3003 RMK A01
KGOO 271635Z AUTO 00000KT 10SM CLR 20/05 A3002 RMK A01
KGOO 271615Z AUTO 00000KT 10SM CLR 20/05 A3002 RMK A01
KGOO 271555Z AUTO 00000KT 10SM CLR 19/04 A3003 RMK A01
KGOO 271535Z AUTO 00000KT 10SM CLR 19/03 A3002 RMK A01
KGOO 271515Z AUTO 00000KT 10SM CLR 19/03 A3002 RMK A01
KGOO 271455Z AUTO 00000KT 10SM CLR 19/02 A3001 RMK A01
KGOO 271435Z AUTO 00000KT 10SM CLR 18/02 A3001 RMK A01
KGOO 271415Z AUTO 00000KT 10SM CLR 17/02 A3000 RMK A01
KGOO 271355Z AUTO 00000KT 10SM CLR 16/02 A3000 RMK A01